Time,TemperatureF,DewpointF,PressureIn,WindDirection,WindDirectionDegrees,WindSpeedMPH,WindSpeedGustMPH,Humidity,HourlyPrecipIn,Conditions,Clouds,dailyrainin,SoftwareType,DateUTC
2013-03-09 00:00:00,25.6,23.9,30.48,NNE,30,0.0,2.0,93,0.00,,CLR,0.01,VWS V14.01,2013-03-09 05:00:00,
2013-03-09 00:01:00,25.6,23.9,30.47,NNE,30,0.0,0.0,93,0.00,,CLR,0.00,VWS V14.01,2013-03-09 05:01:00,
2013-03-09 00:03:00,25.6,23.9,30.47,NNE,30,0.0,0.0,93,0.00,,CLR,0.00,VWS V14.01,2013-03-09 05:03:00,
2013-03-09 00:04:00,25.6,23.9,30.47,NNE,30,0.0,0.0,93,0.00,,CLR,0.00,VWS V14.01,2013-03-09 05:04:00,
2013-03-09 00:09:00,25.4,23.9,30.47,NNE,30,1.0,2.0,94,0.00,,CLR,0.00,VWS V14.01,2013-03-09 05:09:00,
2013-03-09 00:14:00,25.5,24.0,30.47,NNE,30,0.0,2.0,94,0.00,,CLR,0.00,VWS V14.01,2013-03-09 05:14:00,
2013-03-09 00:19:00,25.6,24.1,30.47,NNE,30,1.0,2.0,94,0.00,,CLR,0.00,VWS V14.01,2013-03-09 05:19:00,
2013-03-09 00:24:00,25.8,24.6,30.46,NNE,30,1.0,2.0,95,0.00,,CLR,0.00,VWS V14.01,2013-03-09 05:24:00,
2013-03-09 00:29:00,25.8,24.3,30.46,NNE,30,1.0,2.0,94,0.00,,CLR,0.00,VWS V14.01,2013-03-09 05:29:00,
2013-03-09 00:34:00,25.8,24.3,30.47,NNE,30,0.0,1.0,94,0.00,,CLR,0.00,VWS V14.01,2013-03-09 05:34:00,
2013-03-09 00:39:00,25.7,24.2,30.47,NNE,30,0.0,1.0,94,0.00,,CLR,0.00,VWS V14.01,2013-03-09 05:39:00,
2013-03-09 00:44:00,25.5,24.0,30.46,NNE,30,0.0,1.0,94,0.00,,CLR,0.00,VWS V14.01,2013-03-09 05:44:00,
2013-03-09 00:49:00,25.3,23.8,30.46,NNE,30,0.0,1.0,94,0.00,,CLR,0.00,VWS V14.01,2013-03-09 05:49:00,
2013-03-09 00:54:00,25.2,23.7,30.46,NNE,30,0.0,1.0,94,0.00,,CLR,0.00,VWS V14.01,2013-03-09 05:54:00,
2013-03-09 00:59:00,25.4,24.2,30.45,NNE,30,1.0,2.0,95,0.00,,CLR,0.00,VWS V14.01,2013-03-09 05:59:00,
2013-03-09 01:04:00,25.8,24.6,30.45,NNE,30,1.0,2.0,95,0.00,,,0.00,VWS V14.01,2013-03-09 06:04:00,
2013-03-09 01:09:00,25.9,24.7,30.45,NNE,30,1.0,2.0,95,0.00,,,0.00,VWS V14.01,2013-03-09 06:09:00,
2013-03-09 01:14:00,25.8,24.3,30.45,NNE,30,1.0,2.0,94,0.00,,,0.00,VWS V14.01,2013-03-09 06:14:00,
2013-03-09 01:19:00,25.7,24.2,30.45,NNE,30,0.0,2.0,94,0.00,,,0.00,VWS V14.01,2013-03-09 06:19:00,
2013-03-09 01:24:00,25.6,24.1,30.44,NNE,30,1.0,2.0,94,0.00,,,0.00,VWS V14.01,2013-03-09 06:24:00,
2013-03-09 01:29:00,25.7,24.5,30.44,NNE,30,1.0,2.0,95,0.00,,,0.00,VWS V14.01,2013-03-09 06:29:00,
2013-03-09 01:34:00,25.8,24.3,30.44,NNE,30,2.0,2.0,94,0.00,,,0.00,VWS V14.01,2013-03-09 06:34:00,
2013-03-09 01:39:00,25.6,24.1,30.44,NNE,30,1.0,2.0,94,0.00,,,0.00,VWS V14.01,2013-03-09 06:39:00,
2013-03-09 01:44:00,25.6,24.1,30.44,NNE,30,1.0,2.0,94,0.00,,,0.00,VWS V14.01,2013-03-09 06:44:00,
2013-03-09 01:49:00,25.6,24.1,30.44,NNE,30,1.0,2.0,94,0.00,,,0.00,VWS V14.01,2013-03-09 06:49:00,
2013-03-09 01:54:00,25.7,24.2,30.44,NNE,30,1.0,2.0,94,0.00,,,0.00,VWS V14.01,2013-03-09 06:54:00,
2013-03-09 02:00:00,25.7,24.2,30.44,NNE,30,0.0,2.0,94,0.00,,,0.00,VWS V14.01,2013-03-09 07:00:00,
2013-03-09 02:05:00,25.8,24.3,30.44,NNE,30,0.0,0.0,94,0.00,,,0.00,VWS V14.01,2013-03-09 07:05:00,
2013-03-09 02:10:00,25.8,24.3,30.44,NNE,30,0.0,0.0,94,0.00,,,0.00,VWS V14.01,2013-03-09 07:10:00,
2013-03-09 02:15:00,25.9,24.7,30.44,NNE,30,1.0,2.0,95,0.00,,,0.00,VWS V14.01,2013-03-09 07:15:00,
2013-03-09 02:20:00,26.1,24.6,30.43,NNE,30,1.0,2.0,94,0.00,,,0.00,VWS V14.01,2013-03-09 07:20:00,
2013-03-09 02:25:00,26.1,24.6,30.43,NNE,30,1.0,2.0,94,0.00,,,0.00,VWS V14.01,2013-03-09 07:25:00,
2013-03-09 02:30:00,26.0,24.5,30.43,NNE,30,0.0,2.0,94,0.00,,,0.00,VWS V14.01,2013-03-09 07:30:00,
2013-03-09 02:35:00,25.8,24.1,30.43,NNE,30,0.0,0.0,93,0.00,,,0.00,VWS V14.01,2013-03-09 07:35:00,
2013-03-09 02:40:00,25.8,24.3,30.43,NNE,30,0.0,0.0,94,0.00,,,0.00,VWS V14.01,2013-03-09 07:40:00,
2013-03-09 02:45:00,25.7,24.2,30.43,NNE,30,0.0,0.0,94,0.00,,,0.00,VWS V14.01,2013-03-09 07:45:00,
2013-03-09 02:50:00,25.6,24.1,30.43,NNE,30,0.0,0.0,94,0.00,,,0.00,VWS V14.01,2013-03-09 07:50:00,
2013-03-09 02:55:00,25.7,24.2,30.43,NNE,30,0.0,0.0,94,0.00,,,0.00,VWS V14.01,2013-03-09 07:55:00,
2013-03-09 03:00:00,25.8,24.3,30.43,NNE,30,0.0,0.0,94,0.00,,,0.00,VWS V14.01,2013-03-09 08:00:00,
2013-03-09 03:05:00,26.0,24.5,30.42,NNE,30,0.0,0.0,94,0.00,,,0.00,VWS V14.01,2013-03-09 08:05:00,
2013-03-09 03:10:00,26.2,24.7,30.42,NNE,30,0.0,0.0,94,0.00,,,0.00,VWS V14.01,2013-03-09 08:10:00,
2013-03-09 03:15:00,26.6,25.1,30.42,NNE,30,1.0,2.0,94,0.00,,,0.00,VWS V14.01,2013-03-09 08:15:00,
2013-03-09 03:20:00,26.7,25.2,30.41,NNE,30,0.0,2.0,94,0.00,,,0.00,VWS V14.01,2013-03-09 08:20:00,
2013-03-09 03:25:00,26.7,25.0,30.41,NNE,30,0.0,2.0,93,0.00,,,0.00,VWS V14.01,2013-03-09 08:25:00,
2013-03-09 03:30:00,26.7,25.0,30.41,NNE,30,0.0,0.0,93,0.00,,,0.00,VWS V14.01,2013-03-09 08:30:00,
2013-03-09 03:35:00,26.5,24.8,30.41,NNE,30,0.0,0.0,93,0.00,,,0.00,VWS V14.01,2013-03-09 08:35:00,
2013-03-09 03:40:00,26.3,24.6,30.41,NNE,30,0.0,0.0,93,0.00,,,0.00,VWS V14.01,2013-03-09 08:40:00,
2013-03-09 03:46:00,26.2,24.5,30.41,NNE,30,0.0,0.0,93,0.00,,,0.00,VWS V14.01,2013-03-09 08:46:00,
2013-03-09 03:51:00,26.2,24.7,30.41,NNE,30,0.0,0.0,94,0.00,,,0.00,VWS V14.01,2013-03-09 08:51:00,
2013-03-09 03:56:00,26.3,24.8,30.41,NNE,30,0.0,0.0,94,0.00,,,0.00,VWS V14.01,2013-03-09 08:56:00,
2013-03-09 04:01:00,26.5,25.0,30.41,NNE,30,0.0,0.0,94,0.00,,,0.00,VWS V14.01,2013-03-09 09:01:00,
2013-03-09 04:06:00,26.5,25.0,30.41,NNE,30,0.0,0.0,94,0.00,,,0.00,VWS V14.01,2013-03-09 09:06:00,
2013-03-09 04:11:00,26.5,24.8,30.41,NNE,30,0.0,0.0,93,0.00,,,0.00,VWS V14.01,2013-03-09 09:11:00,
2013-03-09 04:16:00,26.0,24.3,30.41,NNE,30,0.0,0.0,93,0.00,,,0.00,VWS V14.01,2013-03-09 09:16:00,
2013-03-09 04:21:00,25.8,24.1,30.41,NNE,30,0.0,0.0,93,0.00,,,0.00,VWS V14.01,2013-03-09 09:21:00,
2013-03-09 04:26:00,25.6,23.9,30.41,NNE,30,0.0,0.0,93,0.00,,,0.00,VWS V14.01,2013-03-09 09:26:00,
2013-03-09 04:31:00,25.4,23.7,30.41,NNE,30,0.0,0.0,93,0.00,,,0.00,VWS V14.01,2013-03-09 09:31:00,
2013-03-09 04:36:00,25.3,23.8,30.41,NNE,30,0.0,0.0,94,0.00,,,0.00,VWS V14.01,2013-03-09 09:36:00,
2013-03-09 04:41:00,25.2,23.7,30.41,NNE,30,0.0,0.0,94,0.00,,,0.00,VWS V14.01,2013-03-09 09:41:00,
2013-03-09 04:46:00,25.2,23.7,30.42,NNE,30,0.0,0.0,94,0.00,,,0.00,VWS V14.01,2013-03-09 09:46:00,
2013-03-09 04:51:00,25.1,23.6,30.42,NNE,30,0.0,0.0,94,0.00,,,0.00,VWS V14.01,2013-03-09 09:51:00,
2013-03-09 04:56:00,25.1,23.9,30.42,NNE,30,0.0,0.0,95,0.00,,,0.00,VWS V14.01,2013-03-09 09:56:00,
2013-03-09 05:01:00,24.9,23.4,30.42,NNE,30,0.0,0.0,94,0.00,,,0.00,VWS V14.01,2013-03-09 10:01:00,
2013-03-09 05:06:00,24.8,23.3,30.42,NNE,30,0.0,0.0,94,0.00,,,0.00,VWS V14.01,2013-03-09 10:06:00,
2013-03-09 05:11:00,24.6,23.1,30.42,NNE,30,0.0,0.0,94,0.00,,,0.00,VWS V14.01,2013-03-09 10:11:00,
2013-03-09 05:16:00,24.5,23.3,30.42,NNE,30,0.0,0.0,95,0.00,,,0.00,VWS V14.01,2013-03-09 10:16:00,
2013-03-09 05:21:00,24.5,23.3,30.42,NNE,30,0.0,0.0,95,0.00,,,0.00,VWS V14.01,2013-03-09 10:21:00,
2013-03-09 05:27:00,24.5,23.3,30.42,NNE,30,0.0,0.0,95,0.00,,,0.00,VWS V14.01,2013-03-09 10:27:00,
2013-03-09 05:32:00,24.5,23.3,30.42,NNE,30,0.0,0.0,95,0.00,,,0.00,VWS V14.01,2013-03-09 10:32:00,
2013-03-09 05:37:00,24.5,23.3,30.41,NNE,30,0.0,0.0,95,0.00,,,0.00,VWS V14.01,2013-03-09 10:37:00,
2013-03-09 05:42:00,24.4,23.2,30.41,NNE,30,0.0,0.0,95,0.00,,,0.00,VWS V14.01,2013-03-09 10:42:00,
2013-03-09 05:47:00,24.3,23.1,30.41,NNE,30,0.0,0.0,95,0.00,,,0.00,VWS V14.01,2013-03-09 10:47:00,
2013-03-09 05:52:00,24.2,23.0,30.41,NNE,30,0.0,0.0,95,0.00,,,0.00,VWS V14.01,2013-03-09 10:52:00,
2013-03-09 05:57:00,24.1,23.1,30.41,NNE,30,0.0,0.0,96,0.00,,,0.00,VWS V14.01,2013-03-09 10:57:00,
2013-03-09 06:02:00,23.9,22.7,30.41,NNE,30,0.0,0.0,95,0.00,,,0.00,VWS V14.01,2013-03-09 11:02:00,
2013-03-09 06:07:00,23.8,22.6,30.41,NNE,30,0.0,0.0,95,0.00,,,0.00,VWS V14.01,2013-03-09 11:07:00,
2013-03-09 06:12:00,23.8,22.6,30.42,NNE,30,0.0,0.0,95,0.00,,,0.00,VWS V14.01,2013-03-09 11:12:00,
2013-03-09 06:17:00,23.7,22.5,30.41,NNE,30,0.0,0.0,95,0.00,,,0.00,VWS V14.01,2013-03-09 11:17:00,
2013-03-09 06:22:00,23.8,22.8,30.42,NNE,30,0.0,0.0,96,0.00,,,0.00,VWS V14.01,2013-03-09 11:22:00,
2013-03-09 06:27:00,23.7,22.7,30.42,NNE,30,0.0,0.0,96,0.00,,,0.00,VWS V14.01,2013-03-09 11:27:00,
2013-03-09 06:32:00,23.6,22.6,30.42,NNE,30,0.0,0.0,96,0.00,,,0.00,VWS V14.01,2013-03-09 11:32:00,
2013-03-09 06:37:00,23.6,22.6,30.42,NNE,30,0.0,0.0,96,0.00,,,0.00,VWS V14.01,2013-03-09 11:37:00,
2013-03-09 06:42:00,23.6,22.6,30.42,NNE,30,0.0,0.0,96,0.00,,,0.00,VWS V14.01,2013-03-09 11:42:00,
2013-03-09 06:47:00,23.6,22.6,30.42,NNE,30,0.0,0.0,96,0.00,,,0.00,VWS V14.01,2013-03-09 11:47:00,
2013-03-09 06:52:00,23.4,22.4,30.42,NNE,30,0.0,0.0,96,0.00,,,0.00,VWS V14.01,2013-03-09 11:52:00,
2013-03-09 06:57:00,23.4,22.2,30.42,NNE,30,0.0,0.0,95,0.00,,,0.00,VWS V14.01,2013-03-09 11:57:00,
2013-03-09 07:02:00,23.3,22.1,30.42,NNE,30,0.0,0.0,95,0.00,,,0.00,VWS V14.01,2013-03-09 12:02:00,
2013-03-09 07:07:00,23.3,22.1,30.42,NNE,30,0.0,0.0,95,0.00,,,0.00,VWS V14.01,2013-03-09 12:07:00,
2013-03-09 07:12:00,23.4,22.4,30.42,NNE,30,0.0,0.0,96,0.00,,,0.00,VWS V14.01,2013-03-09 12:12:00,
2013-03-09 07:18:00,23.6,22.6,30.42,NNE,30,0.0,0.0,96,0.00,,,0.00,VWS V14.01,2013-03-09 12:18:00,
2013-03-09 07:23:00,24.1,23.1,30.42,NNE,30,0.0,0.0,96,0.00,,,0.00,VWS V14.01,2013-03-09 12:23:00,
2013-03-09 07:28:00,24.5,23.8,30.42,NNE,30,0.0,0.0,97,0.00,,,0.00,VWS V14.01,2013-03-09 12:28:00,
2013-03-09 07:33:00,25.3,24.6,30.42,NNE,30,1.0,1.0,97,0.00,,,0.00,VWS V14.01,2013-03-09 12:33:00,
2013-03-09 07:38:00,26.2,25.5,30.42,NNE,30,0.0,2.0,97,0.00,,,0.00,VWS V14.01,2013-03-09 12:38:00,
2013-03-09 07:43:00,27.0,26.3,30.42,ENE,67,2.0,4.0,97,0.00,,,0.00,VWS V14.01,2013-03-09 12:43:00,
2013-03-09 07:48:00,27.9,27.2,30.42,ENE,67,1.0,4.0,97,0.00,,,0.00,VWS V14.01,2013-03-09 12:48:00,
2013-03-09 07:53:00,28.5,27.8,30.42,ENE,68,2.0,4.0,97,0.00,,,0.00,VWS V14.01,2013-03-09 12:53:00,
2013-03-09 07:58:00,29.1,27.9,30.42,ENE,71,1.0,4.0,95,0.00,,,0.00,VWS V14.01,2013-03-09 12:58:00,
2013-03-09 08:03:00,29.6,28.1,30.42,ENE,71,1.0,2.0,94,0.00,,,0.00,VWS V14.01,2013-03-09 13:03:00,
2013-03-09 08:08:00,30.1,28.3,30.42,ENE,71,2.0,2.0,93,0.00,,,0.00,VWS V14.01,2013-03-09 13:08:00,
2013-03-09 08:13:00,30.8,28.8,30.42,ENE,71,0.0,2.0,92,0.00,,,0.00,VWS V14.01,2013-03-09 13:13:00,
2013-03-09 08:18:00,31.2,28.6,30.42,ENE,71,1.0,2.0,90,0.00,,,0.00,VWS V14.01,2013-03-09 13:18:00,
2013-03-09 08:23:00,31.5,28.9,30.42,ENE,71,1.0,2.0,90,0.00,,,0.00,VWS V14.01,2013-03-09 13:23:00,
2013-03-09 08:28:00,31.9,29.0,30.42,ENE,72,1.0,3.0,89,0.00,,,0.00,VWS V14.01,2013-03-09 13:28:00,
2013-03-09 08:33:00,32.2,29.0,30.42,East,87,3.0,3.0,88,0.00,,,0.00,VWS V14.01,2013-03-09 13:33:00,
2013-03-09 08:38:00,32.4,29.0,30.42,East,88,2.0,5.0,87,0.00,,,0.00,VWS V14.01,2013-03-09 13:38:00,
2013-03-09 08:43:00,33.0,29.8,30.41,SE,140,2.0,5.0,88,0.00,,,0.00,VWS V14.01,2013-03-09 13:43:00,
2013-03-09 08:48:00,33.4,30.0,30.41,East,81,3.0,7.0,87,0.00,,,0.00,VWS V14.01,2013-03-09 13:48:00,
2013-03-09 08:53:00,33.9,30.5,30.41,East,93,5.0,7.0,87,0.00,,,0.00,VWS V14.01,2013-03-09 13:53:00,
2013-03-09 08:58:00,34.2,30.5,30.41,ENE,78,2.0,7.0,86,0.00,,,0.00,VWS V14.01,2013-03-09 13:58:00,
2013-03-09 09:04:00,34.0,29.7,30.41,East,101,6.0,8.0,84,0.00,,,0.00,VWS V14.01,2013-03-09 14:04:00,
2013-03-09 09:09:00,33.9,29.9,30.41,SE,125,1.0,8.0,85,0.00,,,0.00,VWS V14.01,2013-03-09 14:09:00,
2013-03-09 09:14:00,34.4,30.6,30.41,East,84,3.0,8.0,86,0.00,,,0.00,VWS V14.01,2013-03-09 14:14:00,
2013-03-09 09:19:00,34.9,30.3,30.41,East,86,1.0,8.0,83,0.00,,,0.00,VWS V14.01,2013-03-09 14:19:00,
2013-03-09 09:24:00,34.9,30.3,30.41,East,97,3.0,8.0,83,0.00,,,0.00,VWS V14.01,2013-03-09 14:24:00,
2013-03-09 09:29:00,34.9,30.0,30.41,ENE,74,3.0,9.0,82,0.00,,,0.00,VWS V14.01,2013-03-09 14:29:00,
2013-03-09 09:34:00,35.5,30.3,30.41,SSE,153,6.0,8.0,81,0.00,,,0.00,VWS V14.01,2013-03-09 14:34:00,
2013-03-09 09:39:00,35.7,29.8,30.41,SE,141,5.0,10.0,79,0.00,,,0.00,VWS V14.01,2013-03-09 14:39:00,
2013-03-09 09:44:00,36.0,29.8,30.41,SSE,150,5.0,10.0,78,0.00,,,0.00,VWS V14.01,2013-03-09 14:44:00,
2013-03-09 09:49:00,36.1,29.9,30.41,South,182,4.0,11.0,78,0.00,,,0.00,VWS V14.01,2013-03-09 14:49:00,
2013-03-09 09:54:00,36.4,29.9,30.41,SSE,153,1.0,11.0,77,0.00,,,0.00,VWS V14.01,2013-03-09 14:54:00,
2013-03-09 09:59:00,37.0,30.8,30.41,SE,146,4.0,11.0,78,0.00,,,0.00,VWS V14.01,2013-03-09 14:59:00,
2013-03-09 10:04:00,37.2,30.7,30.41,NE,51,5.0,7.0,77,0.00,,,0.00,VWS V14.01,2013-03-09 15:04:00,
2013-03-09 10:09:00,37.3,30.8,30.40,South,187,1.0,7.0,77,0.00,,,0.00,VWS V14.01,2013-03-09 15:09:00,
2013-03-09 10:14:00,37.5,29.6,30.40,SSE,154,7.0,13.0,73,0.00,,,0.00,VWS V14.01,2013-03-09 15:14:00,
2013-03-09 10:19:00,37.4,30.2,30.40,ESE,119,9.0,13.0,75,0.00,,,0.00,VWS V14.01,2013-03-09 15:19:00,
2013-03-09 10:24:00,37.7,31.1,30.40,SE,129,5.0,13.0,77,0.00,,,0.00,VWS V14.01,2013-03-09 15:24:00,
2013-03-09 10:29:00,38.3,30.4,30.40,SE,135,7.0,13.0,73,0.00,,,0.00,VWS V14.01,2013-03-09 15:29:00,
2013-03-09 10:34:00,38.0,30.1,30.40,South,189,2.0,10.0,73,0.00,,,0.00,VWS V14.01,2013-03-09 15:34:00,
2013-03-09 10:39:00,38.4,30.5,30.40,South,175,3.0,10.0,73,0.00,,,0.00,VWS V14.01,2013-03-09 15:39:00,
2013-03-09 10:44:00,38.8,31.2,30.39,South,184,5.0,10.0,74,0.00,,,0.00,VWS V14.01,2013-03-09 15:44:00,
2013-03-09 10:49:00,39.2,31.3,30.39,ESE,120,4.0,10.0,73,0.00,,,0.00,VWS V14.01,2013-03-09 15:49:00,
2013-03-09 10:55:00,39.5,30.9,30.38,SSE,150,2.0,10.0,71,0.00,,,0.00,VWS V14.01,2013-03-09 15:55:00,
2013-03-09 11:00:00,39.6,31.0,30.39,SE,138,6.0,10.0,71,0.00,,,0.00,VWS V14.01,2013-03-09 16:00:00,
2013-03-09 11:05:00,39.6,30.6,30.39,SSE,167,7.0,9.0,70,0.00,,CLR,0.00,VWS V14.01,2013-03-09 16:05:00,
2013-03-09 11:10:00,40.0,31.7,30.39,SSE,166,3.0,9.0,72,0.00,,CLR,0.00,VWS V14.01,2013-03-09 16:10:00,
2013-03-09 11:15:00,40.7,31.0,30.39,South,190,7.0,10.0,68,0.00,,CLR,0.00,VWS V14.01,2013-03-09 16:15:00,
2013-03-09 11:20:00,40.7,31.3,30.38,ESE,116,4.0,10.0,69,0.00,,CLR,0.00,VWS V14.01,2013-03-09 16:20:00,
2013-03-09 11:25:00,41.1,31.0,30.38,SSW,196,7.0,11.0,67,0.00,,CLR,0.00,VWS V14.01,2013-03-09 16:25:00,
2013-03-09 11:30:00,41.0,31.3,30.38,SSE,163,6.0,8.0,68,0.00,,CLR,0.00,VWS V14.01,2013-03-09 16:30:00,
2013-03-09 11:35:00,41.1,31.0,30.38,South,183,6.0,11.0,67,0.00,,CLR,0.00,VWS V14.01,2013-03-09 16:35:00,
2013-03-09 11:40:00,41.2,31.1,30.38,SE,146,7.0,11.0,67,0.00,,CLR,0.00,VWS V14.01,2013-03-09 16:40:00,
2013-03-09 11:45:00,41.3,31.5,30.38,South,177,4.0,11.0,68,0.00,,CLR,0.00,VWS V14.01,2013-03-09 16:45:00,
2013-03-09 11:50:00,41.6,31.8,30.37,East,90,6.0,11.0,68,0.00,,CLR,0.00,VWS V14.01,2013-03-09 16:50:00,
2013-03-09 11:55:00,41.8,30.9,30.37,SW,217,5.0,11.0,65,0.00,,CLR,0.00,VWS V14.01,2013-03-09 16:55:00,
2013-03-09 12:00:00,42.3,32.5,30.38,South,180,8.0,10.0,68,0.00,,CLR,0.00,VWS V14.01,2013-03-09 17:00:00,
2013-03-09 12:05:00,42.7,32.2,30.37,South,178,6.0,10.0,66,0.00,,CLR,0.00,VWS V14.01,2013-03-09 17:05:00,
2013-03-09 12:10:00,42.6,32.4,30.37,SSE,164,3.0,10.0,67,0.00,,CLR,0.00,VWS V14.01,2013-03-09 17:10:00,
2013-03-09 12:15:00,43.2,32.2,30.36,SSE,151,4.0,11.0,65,0.00,,CLR,0.00,VWS V14.01,2013-03-09 17:15:00,
2013-03-09 12:20:00,43.5,32.2,30.36,SE,146,2.0,11.0,64,0.00,,CLR,0.00,VWS V14.01,2013-03-09 17:20:00,
2013-03-09 12:25:00,43.9,31.7,30.36,South,171,5.0,11.0,62,0.00,,CLR,0.00,VWS V14.01,2013-03-09 17:25:00,
2013-03-09 12:31:00,44.0,32.2,30.36,ESE,115,2.0,8.0,63,0.00,,CLR,0.00,VWS V14.01,2013-03-09 17:31:00,
2013-03-09 12:36:00,44.3,31.7,30.35,SE,135,4.0,9.0,61,0.00,,CLR,0.00,VWS V14.01,2013-03-09 17:36:00,
2013-03-09 12:41:00,44.6,33.2,30.35,East,98,3.0,14.0,64,0.00,,CLR,0.00,VWS V14.01,2013-03-09 17:41:00,
2013-03-09 12:46:00,44.9,32.3,30.35,SSE,166,3.0,14.0,61,0.00,,CLR,0.00,VWS V14.01,2013-03-09 17:46:00,
2013-03-09 12:51:00,45.5,33.7,30.35,SSE,150,3.0,14.0,63,0.00,,CLR,0.00,VWS V14.01,2013-03-09 17:51:00,
2013-03-09 12:56:00,45.8,32.3,30.35,SSE,164,1.0,14.0,59,0.00,,CLR,0.00,VWS V14.01,2013-03-09 17:56:00,
2013-03-09 13:01:00,45.4,31.9,30.35,SE,136,2.0,6.0,59,0.00,,CLR,0.00,VWS V14.01,2013-03-09 18:01:00,
2013-03-09 13:06:00,45.4,33.6,30.35,SE,138,2.0,8.0,63,0.00,,CLR,0.00,VWS V14.01,2013-03-09 18:06:00,
2013-03-09 13:11:00,46.1,33.0,30.34,South,182,2.0,10.0,60,0.00,,CLR,0.00,VWS V14.01,2013-03-09 18:11:00,
2013-03-09 13:16:00,46.5,33.0,30.34,South,180,4.0,10.0,59,0.00,,CLR,0.00,VWS V14.01,2013-03-09 18:16:00,
2013-03-09 13:21:00,46.5,33.8,30.33,SSE,153,7.0,10.0,61,0.00,,CLR,0.00,VWS V14.01,2013-03-09 18:21:00,
2013-03-09 13:26:00,46.7,32.7,30.33,SE,133,4.0,10.0,58,0.00,,CLR,0.00,VWS V14.01,2013-03-09 18:26:00,
2013-03-09 13:31:00,47.4,34.2,30.33,South,169,3.0,5.0,60,0.00,,CLR,0.00,VWS V14.01,2013-03-09 18:31:00,
2013-03-09 13:36:00,47.7,34.1,30.32,SSE,153,7.0,10.0,59,0.00,,CLR,0.00,VWS V14.01,2013-03-09 18:36:00,
2013-03-09 13:41:00,47.5,33.9,30.32,South,184,4.0,10.0,59,0.00,,CLR,0.00,VWS V14.01,2013-03-09 18:41:00,
2013-03-09 13:46:00,47.6,33.1,30.32,SW,214,7.0,10.0,57,0.00,,CLR,0.00,VWS V14.01,2013-03-09 18:46:00,
2013-03-09 13:51:00,47.9,33.8,30.31,SSW,198,7.0,10.0,58,0.00,,CLR,0.00,VWS V14.01,2013-03-09 18:51:00,
2013-03-09 13:56:00,48.3,33.3,30.31,South,178,6.0,10.0,56,0.00,,CLR,0.00,VWS V14.01,2013-03-09 18:56:00,
2013-03-09 14:01:00,48.3,34.2,30.30,SW,220,4.0,7.0,58,0.00,,CLR,0.00,VWS V14.01,2013-03-09 19:01:00,
2013-03-09 14:06:00,48.3,34.2,30.30,SSE,162,2.0,11.0,58,0.00,,CLR,0.00,VWS V14.01,2013-03-09 19:06:00,
2013-03-09 14:12:00,48.4,32.5,30.29,ESE,123,9.0,12.0,54,0.00,,CLR,0.00,VWS V14.01,2013-03-09 19:12:00,
2013-03-09 14:17:00,48.4,33.0,30.29,SSE,163,5.0,12.0,55,0.00,,CLR,0.00,VWS V14.01,2013-03-09 19:17:00,
2013-03-09 14:22:00,48.8,33.4,30.29,South,179,11.0,12.0,55,0.00,,CLR,0.00,VWS V14.01,2013-03-09 19:22:00,
2013-03-09 14:27:00,48.8,33.4,30.29,South,184,9.0,12.0,55,0.00,,CLR,0.00,VWS V14.01,2013-03-09 19:27:00,
2013-03-09 14:32:00,49.3,33.4,30.29,South,186,5.0,8.0,54,0.00,,CLR,0.00,VWS V14.01,2013-03-09 19:32:00,
2013-03-09 14:37:00,49.8,34.3,30.28,SSW,194,5.0,9.0,55,0.00,,CLR,0.00,VWS V14.01,2013-03-09 19:37:00,
2013-03-09 14:42:00,49.9,33.5,30.28,SE,138,6.0,13.0,53,0.00,,CLR,0.00,VWS V14.01,2013-03-09 19:42:00,
2013-03-09 14:47:00,49.9,33.5,30.28,South,190,6.0,13.0,53,0.00,,CLR,0.00,VWS V14.01,2013-03-09 19:47:00,
2013-03-09 14:52:00,50.1,34.6,30.28,SSW,192,4.0,13.0,55,0.00,,CLR,0.00,VWS V14.01,2013-03-09 19:52:00,
2013-03-09 14:57:00,50.4,34.9,30.27,SE,129,5.0,13.0,55,0.00,,CLR,0.00,VWS V14.01,2013-03-09 19:57:00,
2013-03-09 15:02:00,50.4,33.9,30.27,ESE,118,8.0,9.0,53,0.00,,CLR,0.00,VWS V14.01,2013-03-09 20:02:00,
2013-03-09 15:07:00,50.2,34.2,30.27,South,173,5.0,10.0,54,0.00,,CLR,0.00,VWS V14.01,2013-03-09 20:07:00,
2013-03-09 15:12:00,50.3,34.3,30.27,SE,125,3.0,10.0,54,0.00,,CLR,0.00,VWS V14.01,2013-03-09 20:12:00,
2013-03-09 15:17:00,50.5,34.5,30.26,SSW,198,6.0,10.0,54,0.00,,CLR,0.00,VWS V14.01,2013-03-09 20:17:00,
2013-03-09 15:22:00,50.6,34.1,30.26,SSE,162,5.0,10.0,53,0.00,,CLR,0.00,VWS V14.01,2013-03-09 20:22:00,
2013-03-09 15:28:00,50.9,34.9,30.26,SE,137,1.0,10.0,54,0.00,,CLR,0.00,VWS V14.01,2013-03-09 20:28:00,
2013-03-09 15:33:00,51.1,34.1,30.26,SSW,206,6.0,9.0,52,0.00,,CLR,0.00,VWS V14.01,2013-03-09 20:33:00,
2013-03-09 15:38:00,51.1,34.1,30.26,SSW,197,3.0,9.0,52,0.00,,CLR,0.00,VWS V14.01,2013-03-09 20:38:00,
2013-03-09 15:43:00,51.3,34.3,30.26,SSE,163,3.0,9.0,52,0.00,,CLR,0.00,VWS V14.01,2013-03-09 20:43:00,
2013-03-09 15:48:00,51.3,33.8,30.26,South,186,5.0,9.0,51,0.00,,CLR,0.00,VWS V14.01,2013-03-09 20:48:00,
2013-03-09 15:53:00,51.6,34.6,30.25,SSE,151,3.0,9.0,52,0.00,,CLR,0.00,VWS V14.01,2013-03-09 20:53:00,
2013-03-09 15:58:00,52.0,33.5,30.25,SE,137,5.0,9.0,49,0.00,,CLR,0.00,VWS V14.01,2013-03-09 20:58:00,
2013-03-09 16:03:00,52.3,33.7,30.25,South,190,5.0,10.0,49,0.00,,CLR,0.00,VWS V14.01,2013-03-09 21:03:00,
2013-03-09 16:08:00,52.2,33.6,30.25,SSW,192,4.0,12.0,49,0.00,,CLR,0.00,VWS V14.01,2013-03-09 21:08:00,
2013-03-09 16:13:00,52.6,34.0,30.24,ESE,111,7.0,12.0,49,0.00,,CLR,0.00,VWS V14.01,2013-03-09 21:13:00,
2013-03-09 16:18:00,52.3,33.2,30.24,SSE,157,4.0,12.0,48,0.00,,CLR,0.00,VWS V14.01,2013-03-09 21:18:00,
2013-03-09 16:23:00,52.4,33.8,30.24,South,182,5.0,12.0,49,0.00,,CLR,0.00,VWS V14.01,2013-03-09 21:23:00,
2013-03-09 16:29:00,52.4,33.3,30.24,South,173,8.0,12.0,48,0.00,,CLR,0.00,VWS V14.01,2013-03-09 21:29:00,
2013-03-09 16:34:00,52.5,33.9,30.24,South,177,3.0,9.0,49,0.00,,CLR,0.00,VWS V14.01,2013-03-09 21:34:00,
2013-03-09 16:39:00,52.6,33.0,30.23,SSE,165,8.0,11.0,47,0.00,,CLR,0.00,VWS V14.01,2013-03-09 21:39:00,
2013-03-09 16:44:00,52.6,33.5,30.23,SE,134,2.0,11.0,48,0.00,,CLR,0.00,VWS V14.01,2013-03-09 21:44:00,
2013-03-09 16:49:00,52.7,33.6,30.23,SE,130,9.0,11.0,48,0.00,,CLR,0.00,VWS V14.01,2013-03-09 21:49:00,
2013-03-09 16:54:00,52.3,33.2,30.23,SE,135,4.0,11.0,48,0.00,,CLR,0.00,VWS V14.01,2013-03-09 21:54:00,
2013-03-09 16:59:00,52.0,32.9,30.22,South,170,3.0,11.0,48,0.00,,CLR,0.00,VWS V14.01,2013-03-09 21:59:00,
2013-03-09 17:04:00,51.6,33.1,30.22,SSE,150,2.0,8.0,49,0.00,,CLR,0.00,VWS V14.01,2013-03-09 22:04:00,
2013-03-09 17:09:00,51.4,32.9,30.22,SE,144,2.0,8.0,49,0.00,,CLR,0.00,VWS V14.01,2013-03-09 22:09:00,
2013-03-09 17:14:00,51.4,32.9,30.22,South,178,2.0,8.0,49,0.00,,CLR,0.00,VWS V14.01,2013-03-09 22:14:00,
2013-03-09 17:19:00,51.6,33.1,30.22,South,171,3.0,9.0,49,0.00,,CLR,0.00,VWS V14.01,2013-03-09 22:19:00,
2013-03-09 17:24:00,51.9,33.4,30.21,SE,144,4.0,9.0,49,0.00,,CLR,0.00,VWS V14.01,2013-03-09 22:24:00,
2013-03-09 17:30:00,52.1,33.5,30.21,SE,134,4.0,9.0,49,0.00,,CLR,0.00,VWS V14.01,2013-03-09 22:30:00,
2013-03-09 17:35:00,52.2,33.1,30.21,SE,146,4.0,9.0,48,0.00,,CLR,0.00,VWS V14.01,2013-03-09 22:35:00,
2013-03-09 17:40:00,52.2,32.6,30.20,SSE,150,3.0,9.0,47,0.00,,CLR,0.00,VWS V14.01,2013-03-09 22:40:00,
2013-03-09 17:45:00,52.0,32.4,30.20,SSE,155,2.0,9.0,47,0.00,,CLR,0.00,VWS V14.01,2013-03-09 22:45:00,
2013-03-09 17:50:00,51.8,32.2,30.20,SSE,148,2.0,9.0,47,0.00,,CLR,0.00,VWS V14.01,2013-03-09 22:50:00,
2013-03-09 17:56:00,51.7,32.1,30.21,ESE,112,2.0,9.0,47,0.00,,CLR,0.00,VWS V14.01,2013-03-09 22:56:00,
2013-03-09 18:01:00,51.4,32.4,30.21,SE,143,2.0,2.0,48,0.00,,CLR,0.00,VWS V14.01,2013-03-09 23:01:00,
2013-03-09 18:06:00,51.2,31.7,30.20,SE,141,3.0,6.0,47,0.00,,CLR,0.00,VWS V14.01,2013-03-09 23:06:00,
2013-03-09 18:11:00,51.0,32.0,30.21,SSE,148,3.0,6.0,48,0.00,,CLR,0.00,VWS V14.01,2013-03-09 23:11:00,
2013-03-09 18:17:00,50.8,31.8,30.21,SSE,148,1.0,6.0,48,0.00,,CLR,0.00,VWS V14.01,2013-03-09 23:17:00,
2013-03-09 18:22:00,50.6,31.6,30.21,SE,136,1.0,6.0,48,0.00,,CLR,0.00,VWS V14.01,2013-03-09 23:22:00,
2013-03-09 18:27:00,50.4,31.5,30.20,SE,133,1.0,6.0,48,0.00,,CLR,0.00,VWS V14.01,2013-03-09 23:27:00,
2013-03-09 18:32:00,50.2,31.3,30.20,SE,143,2.0,3.0,48,0.00,,CLR,0.00,VWS V14.01,2013-03-09 23:32:00,
2013-03-09 18:37:00,50.0,31.6,30.20,SE,143,2.0,5.0,49,0.00,,CLR,0.00,VWS V14.01,2013-03-09 23:37:00,
2013-03-09 18:42:00,49.9,31.5,30.20,SE,143,3.0,5.0,49,0.00,,CLR,0.00,VWS V14.01,2013-03-09 23:42:00,
2013-03-09 18:47:00,49.9,31.0,30.20,SE,138,2.0,7.0,48,0.00,,CLR,0.00,VWS V14.01,2013-03-09 23:47:00,
2013-03-09 18:53:00,49.8,31.4,30.20,ESE,118,3.0,7.0,49,0.00,,CLR,0.00,VWS V14.01,2013-03-09 23:53:00,
2013-03-09 18:58:00,49.6,31.2,30.20,SE,142,1.0,7.0,49,0.00,,CLR,0.00,VWS V14.01,2013-03-09 23:58:00,
2013-03-09 19:03:00,49.5,31.1,30.20,East,94,3.0,5.0,49,0.00,,CLR,0.00,VWS V14.01,2013-03-10 00:03:00,
2013-03-09 19:08:00,49.2,30.9,30.19,East,93,1.0,5.0,49,0.00,,CLR,0.00,VWS V14.01,2013-03-10 00:08:00,
2013-03-09 19:13:00,48.9,31.6,30.20,East,86,2.0,5.0,51,0.00,,CLR,0.00,VWS V14.01,2013-03-10 00:13:00,
2013-03-09 19:18:00,48.5,31.2,30.20,East,98,2.0,5.0,51,0.00,,CLR,0.00,VWS V14.01,2013-03-10 00:18:00,
2013-03-09 19:23:00,48.3,31.5,30.20,East,96,1.0,5.0,52,0.00,,CLR,0.00,VWS V14.01,2013-03-10 00:23:00,
2013-03-09 19:28:00,48.1,30.8,30.20,ESE,102,1.0,5.0,51,0.00,,CLR,0.00,VWS V14.01,2013-03-10 00:28:00,
2013-03-09 19:33:00,48.0,31.2,30.20,East,91,2.0,2.0,52,0.00,,CLR,0.00,VWS V14.01,2013-03-10 00:33:00,
2013-03-09 19:38:00,47.8,31.0,30.19,East,89,5.0,5.0,52,0.00,,CLR,0.00,VWS V14.01,2013-03-10 00:38:00,
2013-03-09 19:46:00,47.9,30.7,30.19,East,100,5.0,5.0,51,0.00,,,0.00,VWS V14.01,2013-03-10 00:46:00,
2013-03-09 19:51:00,48.1,30.8,30.19,East,88,1.0,7.0,51,0.00,,,0.00,VWS V14.01,2013-03-10 00:51:00,
2013-03-09 19:56:00,48.0,30.8,30.18,SE,143,2.0,7.0,51,0.00,,,0.00,VWS V14.01,2013-03-10 00:56:00,
2013-03-09 20:01:00,48.0,30.8,30.18,East,93,5.0,5.0,51,0.00,,CLR,0.00,VWS V14.01,2013-03-10 01:01:00,
2013-03-09 20:06:00,47.9,30.7,30.19,East,88,3.0,7.0,51,0.00,,CLR,0.00,VWS V14.01,2013-03-10 01:06:00,
2013-03-09 20:11:00,47.9,30.7,30.19,ENE,78,2.0,7.0,51,0.00,,CLR,0.00,VWS V14.01,2013-03-10 01:11:00,
2013-03-09 20:16:00,47.8,30.6,30.18,East,86,3.0,7.0,51,0.00,,CLR,0.00,VWS V14.01,2013-03-10 01:16:00,
2013-03-09 20:21:00,47.8,30.6,30.18,East,94,2.0,8.0,51,0.00,,CLR,0.00,VWS V14.01,2013-03-10 01:21:00,
2013-03-09 20:26:00,48.0,30.8,30.18,SE,142,5.0,8.0,51,0.00,,CLR,0.00,VWS V14.01,2013-03-10 01:26:00,
2013-03-09 20:31:00,48.2,30.9,30.18,SSE,148,4.0,6.0,51,0.00,,CLR,0.00,VWS V14.01,2013-03-10 01:31:00,
2013-03-09 20:36:00,48.3,30.5,30.18,SE,130,2.0,6.0,50,0.00,,CLR,0.00,VWS V14.01,2013-03-10 01:36:00,
2013-03-09 20:41:00,48.4,30.6,30.18,ESE,119,4.0,10.0,50,0.00,,CLR,0.00,VWS V14.01,2013-03-10 01:41:00,
2013-03-09 20:46:00,48.4,30.6,30.18,SE,140,3.0,10.0,50,0.00,,CLR,0.00,VWS V14.01,2013-03-10 01:46:00,
2013-03-09 20:51:00,48.4,30.6,30.18,SE,131,3.0,10.0,50,0.00,,CLR,0.00,VWS V14.01,2013-03-10 01:51:00,
2013-03-09 20:56:00,48.3,30.5,30.17,East,90,3.0,10.0,50,0.00,,CLR,0.00,VWS V14.01,2013-03-10 01:56:00,
2013-03-09 21:01:00,48.3,30.5,30.17,East,86,6.0,6.0,50,0.00,,CLR,0.00,VWS V14.01,2013-03-10 02:01:00,
2013-03-09 21:07:00,48.4,30.6,30.18,SE,142,6.0,7.0,50,0.00,,CLR,0.00,VWS V14.01,2013-03-10 02:07:00,
2013-03-09 21:12:00,48.4,30.6,30.18,East,92,3.0,8.0,50,0.00,,CLR,0.00,VWS V14.01,2013-03-10 02:12:00,
2013-03-09 21:17:00,48.3,30.5,30.18,SE,141,2.0,8.0,50,0.00,,CLR,0.00,VWS V14.01,2013-03-10 02:17:00,
2013-03-09 21:22:00,48.4,30.6,30.18,SE,137,1.0,8.0,50,0.00,,CLR,0.00,VWS V14.01,2013-03-10 02:22:00,
2013-03-09 21:27:00,48.4,30.6,30.18,SE,140,3.0,8.0,50,0.00,,CLR,0.00,VWS V14.01,2013-03-10 02:27:00,
2013-03-09 21:32:00,48.5,30.7,30.18,SSE,158,2.0,7.0,50,0.00,,CLR,0.00,VWS V14.01,2013-03-10 02:32:00,
2013-03-09 21:37:00,48.5,30.7,30.17,SE,142,4.0,11.0,50,0.00,,CLR,0.00,VWS V14.01,2013-03-10 02:37:00,
2013-03-09 21:42:00,48.4,30.6,30.18,SE,134,2.0,11.0,50,0.00,,CLR,0.00,VWS V14.01,2013-03-10 02:42:00,
2013-03-09 21:47:00,48.3,30.5,30.18,ESE,117,3.0,11.0,50,0.00,,CLR,0.00,VWS V14.01,2013-03-10 02:47:00,
2013-03-09 21:52:00,48.2,30.5,30.17,ESE,123,8.0,11.0,50,0.00,,CLR,0.00,VWS V14.01,2013-03-10 02:52:00,
2013-03-09 21:57:00,48.2,30.5,30.17,East,100,5.0,11.0,50,0.00,,CLR,0.00,VWS V14.01,2013-03-10 02:57:00,
2013-03-09 22:02:00,48.1,30.4,30.17,ESE,115,5.0,7.0,50,0.00,,CLR,0.00,VWS V14.01,2013-03-10 03:02:00,
2013-03-09 22:07:00,48.0,30.8,30.18,SE,140,4.0,7.0,51,0.00,,CLR,0.00,VWS V14.01,2013-03-10 03:07:00,
2013-03-09 22:12:00,47.8,30.6,30.18,SSE,149,1.0,7.0,51,0.00,,CLR,0.00,VWS V14.01,2013-03-10 03:12:00,
2013-03-09 22:17:00,47.8,30.6,30.18,SSE,150,1.0,7.0,51,0.00,,CLR,0.00,VWS V14.01,2013-03-10 03:17:00,
2013-03-09 22:22:00,47.8,30.6,30.18,SSE,156,2.0,8.0,51,0.00,,CLR,0.00,VWS V14.01,2013-03-10 03:22:00,
2013-03-09 22:27:00,47.8,30.6,30.17,SE,132,4.0,8.0,51,0.00,,CLR,0.00,VWS V14.01,2013-03-10 03:27:00,
2013-03-09 22:33:00,47.7,30.5,30.17,SE,128,4.0,5.0,51,0.00,,CLR,0.00,VWS V14.01,2013-03-10 03:33:00,
2013-03-09 22:38:00,47.7,31.0,30.17,SE,138,2.0,6.0,52,0.00,,CLR,0.00,VWS V14.01,2013-03-10 03:38:00,
2013-03-09 22:43:00,47.6,30.9,30.17,East,99,2.0,8.0,52,0.00,,CLR,0.00,VWS V14.01,2013-03-10 03:43:00,
2013-03-09 22:48:00,47.6,30.9,30.17,ESE,120,3.0,9.0,52,0.00,,CLR,0.00,VWS V14.01,2013-03-10 03:48:00,
2013-03-09 22:53:00,47.5,31.2,30.17,SE,144,2.0,9.0,53,0.00,,CLR,0.00,VWS V14.01,2013-03-10 03:53:00,
2013-03-09 22:58:00,47.5,30.8,30.16,SE,146,5.0,9.0,52,0.00,,CLR,0.00,VWS V14.01,2013-03-10 03:58:00,
2013-03-09 23:03:00,47.6,30.9,30.16,SE,146,3.0,6.0,52,0.00,,OVC110,0.00,VWS V14.01,2013-03-10 04:03:00,
2013-03-09 23:08:00,47.6,30.9,30.16,ESE,123,10.0,10.0,52,0.00,,OVC110,0.00,VWS V14.01,2013-03-10 04:08:00,
2013-03-09 23:13:00,47.6,30.9,30.16,ESE,112,3.0,10.0,52,0.00,,OVC110,0.00,VWS V14.01,2013-03-10 04:13:00,
2013-03-09 23:18:00,47.6,30.9,30.16,ESE,115,4.0,10.0,52,0.00,,OVC110,0.00,VWS V14.01,2013-03-10 04:18:00,
2013-03-09 23:23:00,47.4,30.7,30.16,ESE,123,3.0,10.0,52,0.00,,OVC110,0.00,VWS V14.01,2013-03-10 04:23:00,
2013-03-09 23:28:00,47.4,30.7,30.16,SE,144,4.0,10.0,52,0.00,,OVC110,0.00,VWS V14.01,2013-03-10 04:28:00,
2013-03-09 23:33:00,47.4,30.7,30.16,SE,133,3.0,6.0,52,0.00,,OVC110,0.00,VWS V14.01,2013-03-10 04:33:00,
2013-03-09 23:39:00,47.3,31.0,30.15,SE,138,3.0,8.0,53,0.00,,OVC110,0.00,VWS V14.01,2013-03-10 04:39:00,
2013-03-09 23:44:00,47.3,31.0,30.15,SE,146,2.0,8.0,53,0.00,,OVC110,0.00,VWS V14.01,2013-03-10 04:44:00,
2013-03-09 23:49:00,47.3,31.0,30.15,SE,126,3.0,8.0,53,0.00,,OVC110,0.00,VWS V14.01,2013-03-10 04:49:00,
2013-03-09 23:54:00,47.4,30.7,30.14,SE,124,5.0,8.0,52,0.00,,OVC110,0.00,VWS V14.01,2013-03-10 04:54:00,
2013-03-09 23:59:00,47.3,31.0,30.14,SE,130,1.0,8.0,53,0.00,,OVC110,0.00,VWS V14.01,2013-03-10 04:59:00,